sensor_id;sensor_type;location;lat;lon;timestamp;pressure;altitude;pressure_sealevel;temperature
13219;BMP180;6674;49.152;11.918;2023-05-06T00:00:50;96023.34;;;15.04
13219;BMP180;6674;49.152;11.918;2023-05-06T00:03:17;96018.09;;;14.99
13219;BMP180;6674;49.152;11.918;2023-05-06T00:05:44;96016.47;;;14.93
13219;BMP180;6674;49.152;11.918;2023-05-06T00:08:11;96013.88;;;14.93
13219;BMP180;6674;49.152;11.918;2023-05-06T00:10:38;96012.13;;;14.98
13219;BMP180;6674;49.152;11.918;2023-05-06T00:13:05;95998.34;;;14.98
13219;BMP180;6674;49.152;11.918;2023-05-06T00:15:33;95992.00;;;14.89
13219;BMP180;6674;49.152;11.918;2023-05-06T00:18:00;95999.47;;;14.85
13219;BMP180;6674;49.152;11.918;2023-05-06T00:20:27;95999.66;;;14.79
13219;BMP180;6674;49.152;11.918;2023-05-06T00:22:54;95998.56;;;14.75
13219;BMP180;6674;49.152;11.918;2023-05-06T00:25:21;95993.16;;;14.76
13219;BMP180;6674;49.152;11.918;2023-05-06T00:27:48;95992.56;;;14.74
13219;BMP180;6674;49.152;11.918;2023-05-06T00:30:15;95995.75;;;14.76
13219;BMP180;6674;49.152;11.918;2023-05-06T00:32:43;95988.06;;;14.65
13219;BMP180;6674;49.152;11.918;2023-05-06T00:35:10;95989.50;;;14.40
13219;BMP180;6674;49.152;11.918;2023-05-06T00:37:37;95977.00;;;14.37
13219;BMP180;6674;49.152;11.918;2023-05-06T00:40:23;95979.59;;;14.37
13219;BMP180;6674;49.152;11.918;2023-05-06T00:42:50;95983.94;;;14.31
13219;BMP180;6674;49.152;11.918;2023-05-06T00:45:17;95976.69;;;14.33
13219;BMP180;6674;49.152;11.918;2023-05-06T00:47:45;95973.00;;;14.29
13219;BMP180;6674;49.152;11.918;2023-05-06T00:50:11;95976.38;;;14.30
13219;BMP180;6674;49.152;11.918;2023-05-06T00:52:39;95969.63;;;14.29
13219;BMP180;6674;49.152;11.918;2023-05-06T00:55:06;95970.50;;;14.34
13219;BMP180;6674;49.152;11.918;2023-05-06T00:57:33;95970.97;;;14.31
13219;BMP180;6674;49.152;11.918;2023-05-06T00:59:59;95973.63;;;14.36
13219;BMP180;6674;49.152;11.918;2023-05-06T01:02:26;95981.03;;;14.28
13219;BMP180;6674;49.152;11.918;2023-05-06T01:04:54;95977.09;;;14.25
13219;BMP180;6674;49.152;11.918;2023-05-06T01:07:27;95980.50;;;14.26
13219;BMP180;6674;49.152;11.918;2023-05-06T01:10:02;95982.81;;;14.27
13219;BMP180;6674;49.152;11.918;2023-05-06T01:12:36;95983.25;;;14.20
13219;BMP180;6674;49.152;11.918;2023-05-06T01:15:08;95976.69;;;14.17
13219;BMP180;6674;49.152;11.918;2023-05-06T01:17:41;95972.38;;;14.23
13219;BMP180;6674;49.152;11.918;2023-05-06T01:20:11;95977.00;;;14.21
13219;BMP180;6674;49.152;11.918;2023-05-06T01:22:39;95970.00;;;14.21
13219;BMP180;6674;49.152;11.918;2023-05-06T01:25:18;95969.06;;;14.27
13219;BMP180;6674;49.152;11.918;2023-05-06T01:28:06;95977.91;;;14.26
13219;BMP180;6674;49.152;11.918;2023-05-06T01:30:39;95979.38;;;14.22
13219;BMP180;6674;49.152;11.918;2023-05-06T01:33:12;95978.34;;;14.23
13219;BMP180;6674;49.152;11.918;2023-05-06T01:35:49;95979.13;;;14.23
13219;BMP180;6674;49.152;11.918;2023-05-06T01:38:26;95980.38;;;14.21
13219;BMP180;6674;49.152;11.918;2023-05-06T01:40:57;95974.81;;;14.13
13219;BMP180;6674;49.152;11.918;2023-05-06T01:43:27;95971.28;;;14.19
13219;BMP180;6674;49.152;11.918;2023-05-06T01:45:55;95971.59;;;14.06
13219;BMP180;6674;49.152;11.918;2023-05-06T01:48:23;95976.94;;;14.16
13219;BMP180;6674;49.152;11.918;2023-05-06T01:50:51;95977.41;;;14.13
13219;BMP180;6674;49.152;11.918;2023-05-06T01:53:18;95982.13;;;14.16
13219;BMP180;6674;49.152;11.918;2023-05-06T01:55:45;95988.91;;;14.17
13219;BMP180;6674;49.152;11.918;2023-05-06T01:58:14;95983.25;;;14.20
13219;BMP180;6674;49.152;11.918;2023-05-06T02:00:41;95978.06;;;14.20
13219;BMP180;6674;49.152;11.918;2023-05-06T02:03:07;95988.00;;;14.27
13219;BMP180;6674;49.152;11.918;2023-05-06T02:05:34;95984.41;;;14.28
13219;BMP180;6674;49.152;11.918;2023-05-06T02:08:01;95975.53;;;14.24
13219;BMP180;6674;49.152;11.918;2023-05-06T02:10:28;95969.84;;;14.27
13219;BMP180;6674;49.152;11.918;2023-05-06T02:12:55;95967.00;;;14.29
13219;BMP180;6674;49.152;11.918;2023-05-06T02:15:23;95972.44;;;14.27
13219;BMP180;6674;49.152;11.918;2023-05-06T02:17:49;95975.03;;;14.27
13219;BMP180;6674;49.152;11.918;2023-05-06T02:20:16;95968.91;;;14.33
13219;BMP180;6674;49.152;11.918;2023-05-06T02:22:43;95966.53;;;14.32
13219;BMP180;6674;49.152;11.918;2023-05-06T02:25:10;95972.78;;;14.31
13219;BMP180;6674;49.152;11.918;2023-05-06T02:27:36;95966.06;;;14.35
13219;BMP180;6674;49.152;11.918;2023-05-06T02:30:04;95979.91;;;14.40
13219;BMP180;6674;49.152;11.918;2023-05-06T02:32:32;95979.13;;;14.40
13219;BMP180;6674;49.152;11.918;2023-05-06T02:34:59;95973.22;;;14.44
13219;BMP180;6674;49.152;11.918;2023-05-06T02:37:26;95979.13;;;14.40
13219;BMP180;6674;49.152;11.918;2023-05-06T02:39:52;95974.72;;;14.40
13219;BMP180;6674;49.152;11.918;2023-05-06T02:42:19;95973.56;;;14.31
13219;BMP180;6674;49.152;11.918;2023-05-06T02:44:46;95964.19;;;14.30
13219;BMP180;6674;49.152;11.918;2023-05-06T02:47:13;95965.63;;;14.22
13219;BMP180;6674;49.152;11.918;2023-05-06T02:49:41;95961.91;;;14.18
13219;BMP180;6674;49.152;11.918;2023-05-06T02:52:07;95951.63;;;14.23
13219;BMP180;6674;49.152;11.918;2023-05-06T02:54:34;95957.13;;;14.26
13219;BMP180;6674;49.152;11.918;2023-05-06T02:57:01;95952.72;;;14.26
13219;BMP180;6674;49.152;11.918;2023-05-06T02:59:27;95953.97;;;14.24
13219;BMP180;6674;49.152;11.918;2023-05-06T03:01:54;95953.19;;;14.23
13219;BMP180;6674;49.152;11.918;2023-05-06T03:04:21;95952.41;;;14.23
13219;BMP180;6674;49.152;11.918;2023-05-06T03:06:49;95954.72;;;14.20
13219;BMP180;6674;49.152;11.918;2023-05-06T03:09:15;95953.66;;;14.21
13219;BMP180;6674;49.152;11.918;2023-05-06T03:11:42;95948.31;;;14.11
13219;BMP180;6674;49.152;11.918;2023-05-06T03:14:09;95953.44;;;14.06
13219;BMP180;6674;49.152;11.918;2023-05-06T03:16:35;95956.81;;;14.06
13219;BMP180;6674;49.152;11.918;2023-05-06T03:19:08;95946.56;;;14.00
13219;BMP180;6674;49.152;11.918;2023-05-06T03:21:35;95943.91;;;13.95
13219;BMP180;6674;49.152;11.918;2023-05-06T03:24:04;95946.41;;;13.90
13219;BMP180;6674;49.152;11.918;2023-05-06T03:26:31;95942.09;;;13.79
13219;BMP180;6674;49.152;11.918;2023-05-06T03:28:58;95950.34;;;13.76
13219;BMP180;6674;49.152;11.918;2023-05-06T03:31:24;95946.72;;;13.77
13219;BMP180;6674;49.152;11.918;2023-05-06T03:33:51;95940.69;;;13.72
13219;BMP180;6674;49.152;11.918;2023-05-06T03:36:18;95948.28;;;13.78
13219;BMP180;6674;49.152;11.918;2023-05-06T03:38:46;95948.28;;;13.78
13219;BMP180;6674;49.152;11.918;2023-05-06T03:41:14;95948.63;;;13.81
13219;BMP180;6674;49.152;11.918;2023-05-06T03:43:42;95943.13;;;13.78
13219;BMP180;6674;49.152;11.918;2023-05-06T03:46:09;95950.97;;;13.83
13219;BMP180;6674;49.152;11.918;2023-05-06T03:48:35;95940.75;;;13.77
13219;BMP180;6674;49.152;11.918;2023-05-06T03:51:02;95945.72;;;13.78
13219;BMP180;6674;49.152;11.918;2023-05-06T03:53:29;95944.19;;;13.82
13219;BMP180;6674;49.152;11.918;2023-05-06T03:55:55;95954.41;;;13.72
13219;BMP180;6674;49.152;11.918;2023-05-06T03:58:23;95958.75;;;13.83
13219;BMP180;6674;49.152;11.918;2023-05-06T04:00:50;95954.25;;;13.78
13219;BMP180;6674;49.152;11.918;2023-05-06T04:03:17;95956.78;;;13.90
13219;BMP180;6674;49.152;11.918;2023-05-06T04:05:44;95956.00;;;13.89
13219;BMP180;6674;49.152;11.918;2023-05-06T04:08:11;95958.44;;;13.96
13219;BMP180;6674;49.152;11.918;2023-05-06T04:10:38;95955.53;;;13.92
13219;BMP180;6674;49.152;11.918;2023-05-06T04:13:05;95957.50;;;14.02
13219;BMP180;6674;49.152;11.918;2023-05-06T04:15:33;95965.63;;;14.05
13219;BMP180;6674;49.152;11.918;2023-05-06T04:18:00;95965.75;;;13.99
13219;BMP180;6674;49.152;11.918;2023-05-06T04:20:27;95955.84;;;13.96
13219;BMP180;6674;49.152;11.918;2023-05-06T04:22:54;95975.00;;;13.95
13219;BMP180;6674;49.152;11.918;2023-05-06T04:25:21;95979.88;;;13.91
13219;BMP180;6674;49.152;11.918;2023-05-06T04:27:47;95979.56;;;13.88
13219;BMP180;6674;49.152;11.918;2023-05-06T04:30:14;95983.59;;;13.79
13219;BMP180;6674;49.152;11.918;2023-05-06T04:32:43;95995.91;;;13.88
13219;BMP180;6674;49.152;11.918;2023-05-06T04:35:10;96005.19;;;13.84
13219;BMP180;6674;49.152;11.918;2023-05-06T04:37:37;96000.09;;;13.89
13219;BMP180;6674;49.152;11.918;2023-05-06T04:40:05;95997.09;;;13.97
13219;BMP180;6674;49.152;11.918;2023-05-06T04:42:33;96007.31;;;13.87
13219;BMP180;6674;49.152;11.918;2023-05-06T04:45:00;96002.69;;;13.89
13219;BMP180;6674;49.152;11.918;2023-05-06T04:47:28;96003.25;;;13.64
13219;BMP180;6674;49.152;11.918;2023-05-06T04:49:56;95999.66;;;13.65
13219;BMP180;6674;49.152;11.918;2023-05-06T04:52:23;96008.31;;;13.86
13219;BMP180;6674;49.152;11.918;2023-05-06T04:54:50;96001.25;;;13.82
13219;BMP180;6674;49.152;11.918;2023-05-06T04:57:17;96012.13;;;13.95
13219;BMP180;6674;49.152;11.918;2023-05-06T04:59:43;96008.81;;;14.00
13219;BMP180;6674;49.152;11.918;2023-05-06T05:02:10;96009.19;;;14.03
13219;BMP180;6674;49.152;11.918;2023-05-06T05:04:37;95999.34;;;14.05
13219;BMP180;6674;49.152;11.918;2023-05-06T05:07:05;96009.50;;;14.07
13219;BMP180;6674;49.152;11.918;2023-05-06T05:09:33;96009.19;;;14.20
13219;BMP180;6674;49.152;11.918;2023-05-06T05:12:00;96018.91;;;14.13
13219;BMP180;6674;49.152;11.918;2023-05-06T05:14:26;96015.38;;;14.19
13219;BMP180;6674;49.152;11.918;2023-05-06T05:16:53;96020.03;;;14.17
13219;BMP180;6674;49.152;11.918;2023-05-06T05:19:20;96019.22;;;14.16
13219;BMP180;6674;49.152;11.918;2023-05-06T05:21:48;96010.34;;;14.28
13219;BMP180;6674;49.152;11.918;2023-05-06T05:24:16;96007.28;;;14.31
13219;BMP180;6674;49.152;11.918;2023-05-06T05:26:43;96021.41;;;14.40
13219;BMP180;6674;49.152;11.918;2023-05-06T05:29:10;96023.16;;;14.35
13219;BMP180;6674;49.152;11.918;2023-05-06T05:31:36;96031.50;;;14.21
13219;BMP180;6674;49.152;11.918;2023-05-06T05:34:03;96023.94;;;14.35
13219;BMP180;6674;49.152;11.918;2023-05-06T05:36:30;96020.66;;;14.40
13219;BMP180;6674;49.152;11.918;2023-05-06T05:38:57;96017.81;;;14.41
13219;BMP180;6674;49.152;11.918;2023-05-06T05:41:25;96025.75;;;14.51
13219;BMP180;6674;49.152;11.918;2023-05-06T05:43:51;96022.06;;;14.47
13219;BMP180;6674;49.152;11.918;2023-05-06T05:46:18;96013.25;;;14.48
13219;BMP180;6674;49.152;11.918;2023-05-06T05:48:45;96014.66;;;14.56
13219;BMP180;6674;49.152;11.918;2023-05-06T05:51:11;96014.03;;;14.49
13219;BMP180;6674;49.152;11.918;2023-05-06T05:53:38;96017.09;;;14.62
13219;BMP180;6674;49.152;11.918;2023-05-06T05:56:05;96018.72;;;14.68
13219;BMP180;6674;49.152;11.918;2023-05-06T05:58:33;96011.56;;;14.75
13219;BMP180;6674;49.152;11.918;2023-05-06T06:01:00;96013.13;;;14.76
13219;BMP180;6674;49.152;11.918;2023-05-06T06:03:26;96012.44;;;14.64
13219;BMP180;6674;49.152;11.918;2023-05-06T06:05:53;96011.31;;;14.76
13219;BMP180;6674;49.152;11.918;2023-05-06T06:08:21;96033.41;;;14.79
13219;BMP180;6674;49.152;11.918;2023-05-06T06:10:47;96029.91;;;14.68
13219;BMP180;6674;49.152;11.918;2023-05-06T06:13:14;96026.84;;;14.71
13219;BMP180;6674;49.152;11.918;2023-05-06T06:15:42;96021.72;;;14.76
13219;BMP180;6674;49.152;11.918;2023-05-06T06:18:09;96023.09;;;14.84
13219;BMP180;6674;49.152;11.918;2023-05-06T06:20:35;96038.13;;;14.82
13219;BMP180;6674;49.152;11.918;2023-05-06T06:23:02;96038.44;;;14.85
13219;BMP180;6674;49.152;11.918;2023-05-06T06:25:28;96040.09;;;14.91
13219;BMP180;6674;49.152;11.918;2023-05-06T06:27:55;96056.78;;;14.79
13219;BMP180;6674;49.152;11.918;2023-05-06T06:30:22;96053.84;;;14.92
13219;BMP180;6674;49.152;11.918;2023-05-06T06:32:53;96057.53;;;14.96
13219;BMP180;6674;49.152;11.918;2023-05-06T06:35:20;96056.72;;;15.11
13219;BMP180;6674;49.152;11.918;2023-05-06T06:37:48;96055.41;;;15.09
13219;BMP180;6674;49.152;11.918;2023-05-06T06:40:15;96056.47;;;15.13
13219;BMP180;6674;49.152;11.918;2023-05-06T06:42:42;96061.38;;;15.09
13219;BMP180;6674;49.152;11.918;2023-05-06T06:45:12;96060.03;;;15.23
13219;BMP180;6674;49.152;11.918;2023-05-06T06:47:40;96066.31;;;15.27
13219;BMP180;6674;49.152;11.918;2023-05-06T06:50:09;96066.31;;;15.27
13219;BMP180;6674;49.152;11.918;2023-05-06T06:52:36;96072.59;;;15.31
13219;BMP180;6674;49.152;11.918;2023-05-06T06:55:03;96063.41;;;15.45
13219;BMP180;6674;49.152;11.918;2023-05-06T06:57:30;96068.13;;;15.48
13219;BMP180;6674;49.152;11.918;2023-05-06T06:59:57;96067.94;;;15.54
13219;BMP180;6674;49.152;11.918;2023-05-06T07:02:23;96076.00;;;15.53
13219;BMP180;6674;49.152;11.918;2023-05-06T07:04:52;96076.28;;;15.56
13219;BMP180;6674;49.152;11.918;2023-05-06T07:07:20;96081.66;;;15.50
13219;BMP180;6674;49.152;11.918;2023-05-06T07:09:47;96080.66;;;15.51
13219;BMP180;6674;49.152;11.918;2023-05-06T07:12:14;96086.97;;;15.60
13219;BMP180;6674;49.152;11.918;2023-05-06T07:14:40;96084.97;;;15.67
13219;BMP180;6674;49.152;11.918;2023-05-06T07:17:07;96088.97;;;15.74
13219;BMP180;6674;49.152;11.918;2023-05-06T07:19:34;96090.56;;;15.75
13219;BMP180;6674;49.152;11.918;2023-05-06T07:22:00;96093.44;;;15.79
13219;BMP180;6674;49.152;11.918;2023-05-06T07:24:29;96082.91;;;15.90
13219;BMP180;6674;49.152;11.918;2023-05-06T07:26:56;96082.53;;;16.03
13219;BMP180;6674;49.152;11.918;2023-05-06T07:29:22;96085.75;;;16.15
13219;BMP180;6674;49.152;11.918;2023-05-06T07:31:49;96097.22;;;16.19
13219;BMP180;6674;49.152;11.918;2023-05-06T07:34:16;96093.38;;;16.21
13219;BMP180;6674;49.152;11.918;2023-05-06T07:36:42;96097.09;;;16.30
13219;BMP180;6674;49.152;11.918;2023-05-06T07:39:10;96096.09;;;16.31
13219;BMP180;6674;49.152;11.918;2023-05-06T07:41:39;96099.13;;;16.23
13219;BMP180;6674;49.152;11.918;2023-05-06T07:44:06;96107.84;;;16.12
13219;BMP180;6674;49.152;11.918;2023-05-06T07:46:32;96103.38;;;16.29
13219;BMP180;6674;49.152;11.918;2023-05-06T07:48:59;96102.91;;;16.37
13219;BMP180;6674;49.152;11.918;2023-05-06T07:51:26;96097.47;;;16.39
13219;BMP180;6674;49.152;11.918;2023-05-06T07:53:52;96107.19;;;16.22
13219;BMP180;6674;49.152;11.918;2023-05-06T07:56:19;96102.81;;;16.27
13219;BMP180;6674;49.152;11.918;2023-05-06T07:58:47;96109.16;;;16.36
13219;BMP180;6674;49.152;11.918;2023-05-06T08:01:14;96102.16;;;16.41
13219;BMP180;6674;49.152;11.918;2023-05-06T08:03:42;96107.16;;;16.48
13219;BMP180;6674;49.152;11.918;2023-05-06T08:06:09;96111.25;;;16.39
13219;BMP180;6674;49.152;11.918;2023-05-06T08:08:35;96105.31;;;16.43
13219;BMP180;6674;49.152;11.918;2023-05-06T08:11:02;96118.53;;;16.37
13219;BMP180;6674;49.152;11.918;2023-05-06T08:13:29;96114.09;;;16.38
13219;BMP180;6674;49.152;11.918;2023-05-06T08:15:59;96124.56;;;16.42
13219;BMP180;6674;49.152;11.918;2023-05-06T08:18:26;96116.50;;;16.44
13219;BMP180;6674;49.152;11.918;2023-05-06T08:20:53;96118.00;;;16.40
13219;BMP180;6674;49.152;11.918;2023-05-06T08:23:20;96110.28;;;16.45
13219;BMP180;6674;49.152;11.918;2023-05-06T08:25:47;96122.88;;;16.58
13219;BMP180;6674;49.152;11.918;2023-05-06T08:28:13;96117.75;;;16.68
13219;BMP180;6674;49.152;11.918;2023-05-06T08:30:40;96115.09;;;16.63
13219;BMP180;6674;49.152;11.918;2023-05-06T08:33:08;96126.66;;;16.77
13219;BMP180;6674;49.152;11.918;2023-05-06T08:35:35;96130.31;;;16.76
13219;BMP180;6674;49.152;11.918;2023-05-06T08:38:02;96133.97;;;16.75
13219;BMP180;6674;49.152;11.918;2023-05-06T08:40:30;96127.78;;;16.85
13219;BMP180;6674;49.152;11.918;2023-05-06T08:42:59;96129.59;;;16.85
13219;BMP180;6674;49.152;11.918;2023-05-06T08:45:28;96137.09;;;16.77
13219;BMP180;6674;49.152;11.918;2023-05-06T08:47:55;96126.25;;;16.89
13219;BMP180;6674;49.152;11.918;2023-05-06T08:50:24;96123.28;;;17.12
13219;BMP180;6674;49.152;11.918;2023-05-06T08:52:51;96132.50;;;17.20
13219;BMP180;6674;49.152;11.918;2023-05-06T08:55:18;96130.25;;;17.02
13219;BMP180;6674;49.152;11.918;2023-05-06T08:57:45;96132.91;;;17.07
13219;BMP180;6674;49.152;11.918;2023-05-06T09:00:13;96125.38;;;17.15
13219;BMP180;6674;49.152;11.918;2023-05-06T09:02:40;96126.56;;;17.34
13219;BMP180;6674;49.152;11.918;2023-05-06T09:05:08;96130.78;;;17.45
13219;BMP180;6674;49.152;11.918;2023-05-06T09:07:36;96130.25;;;17.38
13219;BMP180;6674;49.152;11.918;2023-05-06T09:10:06;96137.88;;;17.49
13219;BMP180;6674;49.152;11.918;2023-05-06T09:12:37;96125.63;;;17.55
13219;BMP180;6674;49.152;11.918;2023-05-06T09:15:05;96123.59;;;17.67
13219;BMP180;6674;49.152;11.918;2023-05-06T09:17:32;96124.47;;;17.92
13219;BMP180;6674;49.152;11.918;2023-05-06T09:19:59;96126.09;;;18.03
13219;BMP180;6674;49.152;11.918;2023-05-06T09:22:27;96125.28;;;18.07
13219;BMP180;6674;49.152;11.918;2023-05-06T09:24:57;96126.88;;;18.08
13219;BMP180;6674;49.152;11.918;2023-05-06T09:27:24;96126.16;;;18.17
13219;BMP180;6674;49.152;11.918;2023-05-06T09:29:59;96116.22;;;18.24
13219;BMP180;6674;49.152;11.918;2023-05-06T09:32:27;96129.53;;;18.13
13219;BMP180;6674;49.152;11.918;2023-05-06T09:34:53;96122.47;;;18.14
13219;BMP180;6674;49.152;11.918;2023-05-06T09:37:20;96115.47;;;18.29
13219;BMP180;6674;49.152;11.918;2023-05-06T09:39:48;96120.69;;;18.39
13219;BMP180;6674;49.152;11.918;2023-05-06T09:42:22;96111.53;;;18.41
13219;BMP180;6674;49.152;11.918;2023-05-06T09:44:51;96105.28;;;18.47
13219;BMP180;6674;49.152;11.918;2023-05-06T09:47:19;96117.84;;;18.65
13219;BMP180;6674;49.152;11.918;2023-05-06T09:49:46;96115.47;;;18.78
13219;BMP180;6674;49.152;11.918;2023-05-06T09:52:13;96101.38;;;18.84
13219;BMP180;6674;49.152;11.918;2023-05-06T09:54:40;96101.38;;;19.09
13219;BMP180;6674;49.152;11.918;2023-05-06T09:57:08;96106.59;;;18.89
13219;BMP180;6674;49.152;11.918;2023-05-06T09:59:39;96101.88;;;18.91
13219;BMP180;6674;49.152;11.918;2023-05-06T10:02:07;96096.66;;;18.81
13219;BMP180;6674;49.152;11.918;2023-05-06T10:04:36;96091.44;;;19.01
13219;BMP180;6674;49.152;11.918;2023-05-06T10:07:04;96089.09;;;19.09
13219;BMP180;6674;49.152;11.918;2023-05-06T10:09:31;96088.81;;;19.16
13219;BMP180;6674;49.152;11.918;2023-05-06T10:11:59;96084.59;;;19.35
13219;BMP180;6674;49.152;11.918;2023-05-06T10:14:27;96083.00;;;19.39
13219;BMP180;6674;49.152;11.918;2023-05-06T10:16:58;96090.88;;;19.24
13219;BMP180;6674;49.152;11.918;2023-05-06T10:19:25;96083.53;;;19.36
13219;BMP180;6674;49.152;11.918;2023-05-06T10:21:54;96085.66;;;19.19
13219;BMP180;6674;49.152;11.918;2023-05-06T10:24:28;96086.66;;;19.38
13219;BMP180;6674;49.152;11.918;2023-05-06T10:26:58;96083.88;;;19.09
13219;BMP180;6674;49.152;11.918;2023-05-06T10:29:27;96084.09;;;18.93
13219;BMP180;6674;49.152;11.918;2023-05-06T10:31:58;96090.38;;;18.97
13219;BMP180;6674;49.152;11.918;2023-05-06T10:34:31;96077.34;;;18.92
13219;BMP180;6674;49.152;11.918;2023-05-06T10:37:00;96083.09;;;18.74
13219;BMP180;6674;49.152;11.918;2023-05-06T10:39:27;96081.53;;;18.68
13219;BMP180;6674;49.152;11.918;2023-05-06T10:41:54;96081.50;;;18.93
13219;BMP180;6674;49.152;11.918;2023-05-06T10:44:55;96089.63;;;18.97
13219;BMP180;6674;49.152;11.918;2023-05-06T10:47:23;96081.50;;;18.88
13219;BMP180;6674;49.152;11.918;2023-05-06T10:50:17;96077.34;;;18.82
13219;BMP180;6674;49.152;11.918;2023-05-06T10:52:44;96071.06;;;18.73
13219;BMP180;6674;49.152;11.918;2023-05-06T10:55:24;96066.38;;;18.80
13219;BMP180;6674;49.152;11.918;2023-05-06T10:57:53;96063.75;;;18.70
13219;BMP180;6674;49.152;11.918;2023-05-06T11:00:21;96062.44;;;18.73
13219;BMP180;6674;49.152;11.918;2023-05-06T11:02:53;96057.19;;;18.93
13219;BMP180;6674;49.152;11.918;2023-05-06T11:05:21;96065.31;;;19.01
13219;BMP180;6674;49.152;11.918;2023-05-06T11:07:49;96059.53;;;19.09
13219;BMP180;6674;49.152;11.918;2023-05-06T11:10:30;96061.06;;;19.25
13219;BMP180;6674;49.152;11.918;2023-05-06T11:12:58;96058.19;;;19.31
13219;BMP180;6674;49.152;11.918;2023-05-06T11:15:25;96058.06;;;19.56
13219;BMP180;6674;49.152;11.918;2023-05-06T11:17:54;96062.75;;;19.64
13219;BMP180;6674;49.152;11.918;2023-05-06T11:20:22;96064.59;;;19.63
13219;BMP180;6674;49.152;11.918;2023-05-06T11:22:49;96066.69;;;19.56
13219;BMP180;6674;49.152;11.918;2023-05-06T11:25:38;96056.72;;;19.68
13219;BMP180;6674;49.152;11.918;2023-05-06T11:28:10;96068.97;;;19.83
13219;BMP180;6674;49.152;11.918;2023-05-06T11:30:40;96067.91;;;19.89
13219;BMP180;6674;49.152;11.918;2023-05-06T11:33:16;96064.03;;;19.76
13219;BMP180;6674;49.152;11.918;2023-05-06T11:35:44;96068.06;;;20.02
13219;BMP180;6674;49.152;11.918;2023-05-06T11:38:11;96058.09;;;20.09
13219;BMP180;6674;49.152;11.918;2023-05-06T11:40:40;96065.78;;;19.90
13219;BMP180;6674;49.152;11.918;2023-05-06T11:43:10;96054.97;;;20.02
13219;BMP180;6674;49.152;11.918;2023-05-06T11:45:42;96056.59;;;19.98
13219;BMP180;6674;49.152;11.918;2023-05-06T11:48:11;96057.06;;;20.05
13219;BMP180;6674;49.152;11.918;2023-05-06T11:50:43;96055.16;;;20.20
13219;BMP180;6674;49.152;11.918;2023-05-06T11:53:10;96058.28;;;20.22
13219;BMP180;6674;49.152;11.918;2023-05-06T11:55:37;96052.19;;;20.32
13219;BMP180;6674;49.152;11.918;2023-05-06T11:58:04;96048.59;;;20.18
13219;BMP180;6674;49.152;11.918;2023-05-06T12:00:30;96061.34;;;20.29
13219;BMP180;6674;49.152;11.918;2023-05-06T12:02:57;96050.66;;;20.59
13219;BMP180;6674;49.152;11.918;2023-05-06T12:05:27;96057.56;;;20.45
13219;BMP180;6674;49.152;11.918;2023-05-06T12:07:54;96058.88;;;20.47
13219;BMP180;6674;49.152;11.918;2023-05-06T12:10:22;96050.50;;;20.45
13219;BMP180;6674;49.152;11.918;2023-05-06T12:12:49;96050.91;;;20.62
13219;BMP180;6674;49.152;11.918;2023-05-06T12:15:16;96050.16;;;20.90
13219;BMP180;6674;49.152;11.918;2023-05-06T12:17:44;96055.81;;;20.74
13219;BMP180;6674;49.152;11.918;2023-05-06T12:20:14;96053.69;;;20.76
13219;BMP180;6674;49.152;11.918;2023-05-06T12:22:43;96053.78;;;20.66
13219;BMP180;6674;49.152;11.918;2023-05-06T12:25:14;96055.34;;;20.62
13219;BMP180;6674;49.152;11.918;2023-05-06T12:27:41;96043.03;;;20.62
13219;BMP180;6674;49.152;11.918;2023-05-06T12:30:10;96036.66;;;20.73
13219;BMP180;6674;49.152;11.918;2023-05-06T12:32:55;96037.44;;;21.02
13219;BMP180;6674;49.152;11.918;2023-05-06T12:35:25;96042.13;;;21.28
13219;BMP180;6674;49.152;11.918;2023-05-06T12:37:53;96041.78;;;21.34
13219;BMP180;6674;49.152;11.918;2023-05-06T12:40:20;96046.72;;;21.18
13219;BMP180;6674;49.152;11.918;2023-05-06T12:42:52;96046.13;;;20.97
13219;BMP180;6674;49.152;11.918;2023-05-06T12:45:20;96037.88;;;21.09
13219;BMP180;6674;49.152;11.918;2023-05-06T12:47:51;96044.75;;;20.77
13219;BMP180;6674;49.152;11.918;2023-05-06T12:50:30;96040.84;;;20.74
13219;BMP180;6674;49.152;11.918;2023-05-06T12:52:58;96038.28;;;20.69
13219;BMP180;6674;49.152;11.918;2023-05-06T12:55:25;96039.84;;;20.70
13219;BMP180;6674;49.152;11.918;2023-05-06T12:57:52;96033.03;;;20.69
13219;BMP180;6674;49.152;11.918;2023-05-06T13:00:19;96049.94;;;20.48
13219;BMP180;6674;49.152;11.918;2023-05-06T13:02:46;96039.28;;;20.40
13219;BMP180;6674;49.152;11.918;2023-05-06T13:05:13;96039.44;;;20.53
13219;BMP180;6674;49.152;11.918;2023-05-06T13:07:40;96037.34;;;20.50
13219;BMP180;6674;49.152;11.918;2023-05-06T13:10:08;96031.19;;;20.65
13219;BMP180;6674;49.152;11.918;2023-05-06T13:12:35;96034.19;;;20.53
13219;BMP180;6674;49.152;11.918;2023-05-06T13:15:03;96024.78;;;20.52
13219;BMP180;6674;49.152;11.918;2023-05-06T13:17:30;96025.19;;;20.64
13219;BMP180;6674;49.152;11.918;2023-05-06T13:19:57;96017.75;;;20.76
13219;BMP180;6674;49.152;11.918;2023-05-06T13:22:23;96025.13;;;20.74
13219;BMP180;6674;49.152;11.918;2023-05-06T13:24:50;96023.38;;;20.93
13219;BMP180;6674;49.152;11.918;2023-05-06T13:27:19;96021.19;;;21.00
13219;BMP180;6674;49.152;11.918;2023-05-06T13:29:46;96025.38;;;21.01
13219;BMP180;6674;49.152;11.918;2023-05-06T13:32:12;96011.53;;;20.72
13219;BMP180;6674;49.152;11.918;2023-05-06T13:34:39;96022.06;;;20.62
13219;BMP180;6674;49.152;11.918;2023-05-06T13:37:06;96012.09;;;20.64
13219;BMP180;6674;49.152;11.918;2023-05-06T13:39:32;96005.34;;;20.53
13219;BMP180;6674;49.152;11.918;2023-05-06T13:41:59;96009.72;;;20.63
13219;BMP180;6674;49.152;11.918;2023-05-06T13:44:28;96011.03;;;20.65
13219;BMP180;6674;49.152;11.918;2023-05-06T13:46:55;96006.72;;;20.51
13219;BMP180;6674;49.152;11.918;2023-05-06T13:49:21;96008.75;;;20.54
13219;BMP180;6674;49.152;11.918;2023-05-06T13:51:48;96007.47;;;20.51
13219;BMP180;6674;49.152;11.918;2023-05-06T13:54:15;95998.84;;;20.51
13219;BMP180;6674;49.152;11.918;2023-05-06T13:56:42;95992.88;;;20.40
13219;BMP180;6674;49.152;11.918;2023-05-06T13:59:08;95997.59;;;20.43
13219;BMP180;6674;49.152;11.918;2023-05-06T14:01:39;95999.72;;;20.70
13219;BMP180;6674;49.152;11.918;2023-05-06T14:04:05;95996.97;;;20.84
13219;BMP180;6674;49.152;11.918;2023-05-06T14:06:32;95994.69;;;21.01
13219;BMP180;6674;49.152;11.918;2023-05-06T14:08:59;95998.09;;;21.02
13219;BMP180;6674;49.152;11.918;2023-05-06T14:11:26;95994.59;;;21.11
13219;BMP180;6674;49.152;11.918;2023-05-06T14:13:54;95989.50;;;21.20